Time;durP1;ratioP1;P1;durP2;ratioP2;P2;SDS_P1;SDS_P2;PMS_P1;PMS_P2;Temp;Humidity;BMP_temperature;BMP_pressure;BME280_temperature;BME280_humidity;BME280_pressure;Samples;Min_cycle;Max_cycle;Signal;HPM_P1;HPM_P2
2021/03/15 00:00:13;;;;;;;35.23;23.75;;;;;;;5.44;88.29;98932.45;1689890;83;21669;-64
2021/03/15 00:02:41;;;;;;;32.93;22.82;;;;;;;5.43;88.04;98932.97;1729348;81;21156;-66
2021/03/15 00:05:12;;;;;;;28.27;21.25;;;;;;;5.37;87.97;98935.23;1784857;80;21031;-64
2021/03/15 00:07:40;;;;;;;31.50;24.45;;;;;;;5.36;88.09;98930.98;1783853;80;21543;-70
2021/03/15 00:10:10;;;;;;;29.25;20.85;;;;;;;5.29;88.13;98927.61;1768806;80;20991;-64
2021/03/15 00:12:40;;;;;;;31.25;22.45;;;;;;;5.25;88.26;98931.27;1784412;80;21153;-64
2021/03/15 00:15:14;;;;;;;34.65;22.65;;;;;;;5.23;88.31;98933.87;1781832;80;21177;-64
2021/03/15 00:17:41;;;;;;;31.20;24.65;;;;;;;5.17;88.43;98928.16;1763088;80;21173;-63
2021/03/15 00:20:14;;;;;;;30.52;23.12;;;;;;;5.11;88.60;98927.23;1773365;80;21633;-64
2021/03/15 00:22:42;;;;;;;31.50;22.60;;;;;;;5.12;88.74;98931.53;1753049;81;21356;-63
2021/03/15 00:25:10;;;;;;;31.65;20.92;;;;;;;5.10;88.74;98933.60;1756811;80;21160;-64
2021/03/15 00:27:38;;;;;;;30.75;22.52;;;;;;;5.15;88.83;98936.90;1764473;80;21152;-64
2021/03/15 00:30:07;;;;;;;30.82;21.95;;;;;;;5.15;88.72;98937.71;1753935;80;21148;-64
2021/03/15 00:32:35;;;;;;;32.63;22.62;;;;;;;5.13;88.67;98938.45;1753208;80;21698;-64
2021/03/15 00:35:08;;;;;;;31.17;23.62;;;;;;;5.12;88.77;98938.19;1762604;80;20983;-65
2021/03/15 00:37:36;;;;;;;31.37;21.77;;;;;;;5.12;88.81;98938.19;1783423;80;21110;-64
2021/03/15 00:40:06;;;;;;;35.28;26.42;;;;;;;5.15;88.86;98932.90;1784026;80;21182;-65
2021/03/15 00:42:34;;;;;;;40.45;25.25;;;;;;;5.22;89.00;98926.94;1784221;80;21165;-64
2021/03/15 00:45:05;;;;;;;34.43;24.77;;;;;;;5.28;88.77;98923.31;1784208;80;21193;-66
2021/03/15 00:47:33;;;;;;;30.90;22.90;;;;;;;5.33;88.66;98924.76;1779871;80;22393;-68
2021/03/15 00:50:01;;;;;;;31.85;24.25;;;;;;;5.41;88.50;98926.27;1778556;80;21254;-67
2021/03/15 00:52:29;;;;;;;38.65;26.65;;;;;;;5.48;88.04;98930.93;1753178;80;21107;-64
2021/03/15 00:54:57;;;;;;;35.98;24.98;;;;;;;5.53;87.95;98929.70;1763194;80;21113;-66
2021/03/15 00:57:27;;;;;;;28.32;20.43;;;;;;;5.55;87.54;98922.30;1768121;80;21117;-65
2021/03/15 00:59:55;;;;;;;35.68;23.18;;;;;;;5.57;87.31;98923.66;1772269;80;21212;-66
2021/03/15 01:02:23;;;;;;;35.58;25.30;;;;;;;5.56;87.02;98925.25;1753137;81;21570;-69
2021/03/15 01:04:51;;;;;;;40.23;28.52;;;;;;;5.54;86.96;98925.48;1696550;82;21677;-66
2021/03/15 01:07:21;;;;;;;36.77;27.48;;;;;;;5.60;86.94;98923.21;1701921;84;21234;-66
2021/03/15 01:09:49;;;;;;;33.95;25.97;;;;;;;5.65;86.79;98918.50;1760264;80;21189;-67
2021/03/15 01:12:28;;;;;;;37.30;26.70;;;;;;;5.75;86.51;98924.04;1889240;75;24745;-67
2021/03/15 01:14:56;;;;;;;29.45;22.62;;;;;;;5.73;86.39;98923.97;1860018;77;20967;-68
2021/03/15 01:17:26;;;;;;;38.90;28.38;;;;;;;5.76;86.09;98921.63;1800331;78;21356;-63
2021/03/15 01:19:53;;;;;;;44.05;29.15;;;;;;;5.74;85.83;98917.59;1788585;78;21552;-64
2021/03/15 01:22:22;;;;;;;38.75;28.27;;;;;;;5.71;85.74;98916.20;1751777;81;21082;-64
2021/03/15 01:24:49;;;;;;;45.08;31.70;;;;;;;5.69;85.68;98914.30;1755221;81;21571;-66
2021/03/15 01:27:17;;;;;;;43.58;31.25;;;;;;;5.69;85.73;98915.64;1753696;80;21007;-64
2021/03/15 01:29:44;;;;;;;48.48;31.60;;;;;;;5.73;85.64;98918.64;1798762;78;21550;-65
2021/03/15 01:32:12;;;;;;;37.03;27.58;;;;;;;5.74;85.62;98909.07;1802722;78;21581;-65
2021/03/15 01:34:39;;;;;;;33.80;24.85;;;;;;;5.74;85.45;98913.07;1825481;78;21042;-64
2021/03/15 01:37:07;;;;;;;47.27;31.93;;;;;;;5.73;85.41;98909.30;1825476;78;21591;-64
2021/03/15 01:39:34;;;;;;;46.18;32.45;;;;;;;5.71;85.35;98907.67;1828229;78;21181;-64
2021/03/15 01:42:02;;;;;;;49.35;35.63;;;;;;;5.69;85.26;98908.97;1828522;78;22233;-67
2021/03/15 01:44:29;;;;;;;48.95;33.40;;;;;;;5.67;85.27;98903.86;1828269;78;21130;-63
2021/03/15 01:46:56;;;;;;;42.58;30.50;;;;;;;5.65;85.29;98903.83;1828411;78;21085;-66
2021/03/15 01:49:24;;;;;;;36.05;24.67;;;;;;;5.68;85.44;98905.48;1825821;78;21578;-65
2021/03/15 01:51:52;;;;;;;38.92;28.35;;;;;;;5.71;85.31;98907.67;1828277;78;21201;-65
2021/03/15 01:54:21;;;;;;;44.88;29.70;;;;;;;5.69;85.09;98906.30;1828232;78;21200;-64
2021/03/15 01:56:49;;;;;;;42.53;30.27;;;;;;;5.55;85.10;98903.10;1828393;78;21181;-64
2021/03/15 01:59:17;;;;;;;42.73;30.05;;;;;;;5.41;85.48;98907.09;1825048;77;21094;-65
2021/03/15 02:01:48;;;;;;;44.60;31.30;;;;;;;5.32;85.82;98903.69;1784601;79;21156;-67
2021/03/15 02:04:16;;;;;;;47.93;33.05;;;;;;;5.26;86.19;98905.43;1774515;79;21174;-62
2021/03/15 02:06:44;;;;;;;46.85;33.20;;;;;;;5.21;86.45;98912.80;1760515;81;21366;-63
2021/03/15 02:09:13;;;;;;;48.33;35.28;;;;;;;5.24;86.73;98913.66;1769897;79;21224;-63
2021/03/15 02:12:21;;;;;;;47.98;34.10;;;;;;;5.25;86.75;98908.61;1765843;81;21018;-63
2021/03/15 02:15:00;;;;;;;44.65;29.65;;;;;;;5.30;86.94;98913.24;1762789;81;21054;-62
2021/03/15 02:18:10;;;;;;;44.00;30.50;;;;;;;5.36;86.72;98908.83;1844953;76;24766;-62
2021/03/15 02:21:03;;;;;;;41.42;28.38;;;;;;;5.25;86.81;98919.28;1813503;79;21164;-64
2021/03/15 02:23:47;;;;;;;39.30;28.45;;;;;;;5.24;86.98;98918.17;1812818;79;21191;-62
2021/03/15 02:26:30;;;;;;;;;;;;;;;5.30;87.24;98922.57;1809048;79;21654;-63
2021/03/15 02:29:26;;;;;;;30.68;21.68;;;;;;;5.32;87.03;98922.34;1803060;79;20200;-63
2021/03/15 02:32:24;;;;;;;42.43;27.48;;;;;;;5.35;87.02;98917.88;1797767;79;21145;-62
2021/03/15 02:35:01;;;;;;;42.55;27.87;;;;;;;5.27;86.92;98915.84;1695044;84;21094;-62
2021/03/15 02:37:59;;;;;;;32.98;24.45;;;;;;;5.18;87.09;98917.80;1767458;80;21260;-64
2021/03/15 02:40:37;;;;;;;44.85;29.57;;;;;;;5.18;87.37;98923.91;1820659;78;21029;-63
2021/03/15 02:43:07;;;;;;;37.05;27.35;;;;;;;5.11;87.42;98927.23;1820473;78;21061;-62
2021/03/15 02:45:36;;;;;;;48.42;31.02;;;;;;;5.04;87.70;98931.05;1820586;78;21270;-63
2021/03/15 02:48:08;;;;;;;44.67;30.40;;;;;;;4.97;87.77;98931.70;1819970;78;21210;-62
2021/03/15 02:50:38;;;;;;;35.90;25.35;;;;;;;4.94;87.84;98931.63;1782941;80;21414;-62
2021/03/15 02:53:09;;;;;;;37.28;29.60;;;;;;;4.94;88.05;98929.51;1758418;80;21040;-63
2021/03/15 02:55:37;;;;;;;40.52;28.07;;;;;;;4.91;88.15;98925.95;1788565;80;21620;-63
2021/03/15 02:58:04;;;;;;;39.00;26.37;;;;;;;4.87;88.42;98923.47;1789451;78;21155;-63
2021/03/15 03:00:32;;;;;;;40.70;29.75;;;;;;;4.83;88.58;98911.14;1789128;78;21176;-63
2021/03/15 03:03:01;;;;;;;48.87;33.85;;;;;;;4.79;88.85;98908.14;1789604;78;21816;-62
2021/03/15 03:05:30;;;;;;;44.10;30.85;;;;;;;4.72;89.35;98906.09;1801743;78;21021;-63
2021/03/15 03:08:00;;;;;;;46.48;30.43;;;;;;;4.71;89.63;98896.48;1789320;78;21120;-63
2021/03/15 03:10:28;;;;;;;52.98;34.03;;;;;;;4.73;89.88;98893.08;1807630;78;21041;-63
2021/03/15 03:12:55;;;;;;;49.58;30.85;;;;;;;4.71;90.29;98881.02;1792218;78;21160;-62
2021/03/15 03:15:27;;;;;;;64.07;37.05;;;;;;;4.64;90.89;98881.16;1788483;80;21187;-65
2021/03/15 03:17:55;;;;;;;54.58;37.55;;;;;;;4.64;90.89;98881.16;1811063;78;21033;-63
2021/03/15 03:20:22;;;;;;;60.65;35.45;;;;;;;4.66;91.15;98885.70;1821030;78;21168;-63
2021/03/15 03:22:52;;;;;;;56.25;33.55;;;;;;;4.73;91.34;98877.61;1793474;78;21180;-63
2021/03/15 03:25:22;;;;;;;68.35;38.85;;;;;;;4.80;91.52;98879.63;1802224;78;21155;-63
2021/03/15 03:27:57;;;;;;;74.15;40.95;;;;;;;4.83;91.48;98884.50;1820635;78;21197;-64
2021/03/15 03:30:30;;;;;;;54.45;31.37;;;;;;;4.82;91.67;98882.36;1799844;78;21490;-64
2021/03/15 03:32:58;;;;;;;70.70;42.08;;;;;;;4.87;91.79;98887.51;1817051;78;26673;-63
2021/03/15 03:35:26;;;;;;;64.00;36.15;;;;;;;4.91;91.89;98907.31;1805492;78;21605;-64
2021/03/15 03:37:55;;;;;;;75.83;37.78;;;;;;;4.97;92.01;98911.72;1788225;80;21199;-62
2021/03/15 03:40:22;;;;;;;60.98;34.80;;;;;;;5.00;91.94;98897.40;1765452;80;21660;-63
2021/03/15 03:42:50;;;;;;;61.10;36.75;;;;;;;5.01;91.85;98890.22;1817471;78;21175;-64
2021/03/15 03:45:18;;;;;;;54.05;35.35;;;;;;;4.96;91.86;98893.58;1812106;78;21183;-64
2021/03/15 03:47:45;;;;;;;57.10;34.78;;;;;;;4.97;92.01;98897.88;1791470;80;21161;-64
2021/03/15 03:50:16;;;;;;;62.55;36.73;;;;;;;4.97;92.04;98905.05;1792226;78;21147;-63
2021/03/15 03:52:51;;;;;;;60.03;35.73;;;;;;;4.93;92.14;98902.57;1792078;78;21360;-62
2021/03/15 03:55:22;;;;;;;70.37;40.85;;;;;;;4.86;92.22;98909.86;1778252;78;21215;-63
2021/03/15 03:57:49;;;;;;;54.53;30.85;;;;;;;4.87;92.21;98908.30;1792217;78;21195;-63
2021/03/15 04:00:17;;;;;;;64.58;38.55;;;;;;;4.96;92.58;98910.09;1795915;78;21080;-63
2021/03/15 04:02:51;;;;;;;49.98;31.73;;;;;;;4.96;92.40;98910.91;1793565;78;21172;-64
2021/03/15 04:05:28;;;;;;;59.35;35.45;;;;;;;4.95;92.27;98913.27;1803252;78;21187;-64
2021/03/15 04:08:05;;;;;;;60.10;34.73;;;;;;;4.90;92.25;98921.67;1824118;78;21171;-63
2021/03/15 04:10:33;;;;;;;51.37;30.32;;;;;;;4.87;92.45;98921.63;1809212;78;21120;-64
2021/03/15 04:13:08;;;;;;;51.68;33.90;;;;;;;4.86;92.20;98928.50;1817522;78;21183;-64
2021/03/15 04:15:40;;;;;;;48.50;31.60;;;;;;;4.79;92.07;98922.80;1802339;78;21143;-63
2021/03/15 04:18:09;;;;;;;49.93;32.75;;;;;;;4.77;92.02;98934.70;1791544;80;21479;-63
2021/03/15 04:20:37;;;;;;;51.13;35.17;;;;;;;4.72;92.06;98932.73;1766159;78;21032;-63
2021/03/15 04:23:07;;;;;;;52.43;35.03;;;;;;;4.71;92.18;98937.77;1823975;78;21021;-64
2021/03/15 04:25:36;;;;;;;53.28;35.65;;;;;;;4.69;92.20;98942.53;1807261;78;21131;-62
2021/03/15 04:28:04;;;;;;;47.48;31.70;;;;;;;4.66;92.29;98939.48;1791654;80;21100;-63
2021/03/15 04:30:32;;;;;;;49.93;33.30;;;;;;;4.63;92.35;98947.95;1791816;78;21357;-62
2021/03/15 04:33:00;;;;;;;55.40;36.95;;;;;;;4.63;92.35;98947.95;1823597;78;21139;-63
2021/03/15 04:35:32;;;;;;;60.50;37.85;;;;;;;4.70;92.63;98948.67;1814760;78;21172;-60
2021/03/15 04:38:02;;;;;;;57.30;31.27;;;;;;;4.81;92.75;98955.84;1788192;78;23668;-63
2021/03/15 04:40:30;;;;;;;58.80;32.55;;;;;;;4.89;92.33;98960.03;1758527;81;21552;-62
2021/03/15 04:43:01;;;;;;;54.70;34.08;;;;;;;4.89;92.33;98960.03;1758500;81;21196;-63
2021/03/15 04:45:36;;;;;;;57.60;34.70;;;;;;;4.87;92.23;98964.77;1760139;81;21626;-63
2021/03/15 04:48:05;;;;;;;63.80;39.78;;;;;;;4.84;92.26;98962.05;1751302;81;21140;-64
2021/03/15 04:50:33;;;;;;;56.37;35.10;;;;;;;4.97;92.69;98955.68;1758545;81;21120;-63
2021/03/15 04:53:02;;;;;;;60.20;37.25;;;;;;;4.97;92.69;98955.68;1763490;81;21638;-62
2021/03/15 04:55:31;;;;;;;57.30;37.58;;;;;;;5.04;92.60;98957.17;1762585;81;21363;-63
2021/03/15 04:57:59;;;;;;;71.92;42.65;;;;;;;5.08;92.24;98948.22;1758452;81;21977;-63
2021/03/15 05:00:27;;;;;;;61.60;37.40;;;;;;;5.08;92.24;98948.22;1763539;81;21015;-63
2021/03/15 05:02:54;;;;;;;66.60;39.53;;;;;;;5.09;92.24;98958.63;1763698;81;21618;-63
2021/03/15 05:05:24;;;;;;;64.45;41.65;;;;;;;5.13;92.33;98957.11;1763696;81;21149;-63
2021/03/15 05:07:51;;;;;;;61.68;36.58;;;;;;;5.16;92.43;98965.99;1722942;81;21263;-63
2021/03/15 05:10:19;;;;;;;77.40;41.85;;;;;;;5.27;92.48;98971.03;1756633;81;21701;-63
2021/03/15 05:12:46;;;;;;;78.05;45.52;;;;;;;5.32;92.24;98975.15;1756868;81;21188;-63
2021/03/15 05:15:14;;;;;;;59.53;35.03;;;;;;;5.37;92.08;98979.23;1758362;81;21617;-62
2021/03/15 05:17:42;;;;;;;82.65;48.65;;;;;;;5.41;91.81;98982.27;1759250;81;21169;-64
2021/03/15 05:20:13;;;;;;;88.07;48.67;;;;;;;5.39;91.64;98989.67;1758348;81;21184;-65
2021/03/15 05:22:42;;;;;;;89.00;49.15;;;;;;;5.40;91.68;98979.30;1763657;81;21038;-63
2021/03/15 05:25:12;;;;;;;80.17;40.58;;;;;;;5.43;91.63;98986.82;1763231;81;20999;-62
2021/03/15 05:27:41;;;;;;;79.58;44.77;;;;;;;5.38;91.42;98977.38;1762749;81;21353;-65
2021/03/15 05:30:12;;;;;;;81.00;46.95;;;;;;;5.32;91.46;98983.15;1728271;82;21200;-64
2021/03/15 05:32:43;;;;;;;86.92;47.58;;;;;;;5.33;91.61;98991.93;1727552;83;22364;-63
2021/03/15 05:35:10;;;;;;;81.40;44.90;;;;;;;5.34;91.58;98981.56;1728305;83;21168;-62
2021/03/15 05:37:38;;;;;;;65.28;38.58;;;;;;;5.33;91.50;98984.74;1728261;83;21113;-63
2021/03/15 05:40:14;;;;;;;75.30;42.83;;;;;;;5.36;91.69;98980.81;1758116;81;21184;-61
2021/03/15 05:43:15;;;;;;;65.40;42.53;;;;;;;5.28;91.46;98986.78;1764239;81;21154;-61
2021/03/15 05:46:03;;;;;;;73.80;44.05;;;;;;;5.21;91.61;98987.44;1764062;81;23556;-62
2021/03/15 05:48:48;;;;;;;73.92;39.98;;;;;;;5.20;91.97;98998.31;1762516;81;21231;-62
2021/03/15 05:51:47;;;;;;;61.02;33.13;;;;;;;5.23;92.13;98997.33;1758770;81;21196;-62
2021/03/15 05:54:44;;;;;;;74.62;37.48;;;;;;;5.22;92.11;98989.06;1759749;81;21037;-62
2021/03/15 05:57:55;;;;;;;70.12;39.35;;;;;;;5.17;92.14;98986.28;1764058;81;21182;-61
2021/03/15 06:00:45;;;;;;;70.52;39.20;;;;;;;5.20;92.23;98988.98;1764196;81;23590;-62
2021/03/15 06:03:39;;;;;;;75.90;42.15;;;;;;;5.16;92.29;98992.64;1763110;81;21179;-62
2021/03/15 06:06:06;;;;;;;;;;;;;;;5.15;92.65;98992.35;1705591;81;21042;-62
2021/03/15 06:08:42;;;;;;;73.07;41.00;;;;;;;5.19;92.84;98995.36;1738752;81;20272;-62
2021/03/15 06:11:18;;;;;;;77.80;43.75;;;;;;;5.21;92.94;98993.28;1759083;81;21149;-62
2021/03/15 06:13:46;;;;;;;65.37;37.70;;;;;;;5.19;92.87;98994.84;1759271;81;22231;-62
2021/03/15 06:16:16;;;;;;;79.82;43.13;;;;;;;5.27;93.19;98997.69;1758932;81;21637;-62
2021/03/15 06:18:44;;;;;;;82.78;46.25;;;;;;;5.24;92.99;99004.80;1760730;81;21136;-63
2021/03/15 06:21:13;;;;;;;64.82;35.60;;;;;;;5.21;92.92;99006.61;1738033;81;21219;-62
2021/03/15 06:23:40;;;;;;;88.45;41.58;;;;;;;5.25;93.23;99015.77;1764285;81;21578;-61
2021/03/15 06:26:09;;;;;;;89.60;45.43;;;;;;;5.35;93.36;99012.00;1764037;81;21360;-62
2021/03/15 06:28:36;;;;;;;75.83;39.18;;;;;;;5.43;93.06;99016.16;1762509;81;21046;-63
2021/03/15 06:31:04;;;;;;;81.00;45.63;;;;;;;5.44;92.60;99014.59;1758814;81;21623;-61
2021/03/15 06:33:32;;;;;;;86.63;43.60;;;;;;;5.45;92.55;99014.89;1758685;81;21164;-61
2021/03/15 06:36:05;;;;;;;74.82;40.52;;;;;;;5.51;92.37;99014.48;1758700;81;21149;-62
2021/03/15 06:38:34;;;;;;;94.85;49.80;;;;;;;5.51;91.98;99013.16;1760071;81;21399;-60
2021/03/15 06:41:06;;;;;;;77.32;44.13;;;;;;;5.49;91.83;99009.89;1760280;79;21181;-63
2021/03/15 06:43:36;;;;;;;90.55;47.15;;;;;;;5.48;91.81;99013.08;1760449;81;21006;-61
2021/03/15 06:46:04;;;;;;;83.92;44.67;;;;;;;5.52;92.34;99003.56;1763954;81;21058;-63
2021/03/15 06:48:31;;;;;;;105.05;54.93;;;;;;;5.58;92.48;99005.30;1762423;81;21205;-63
2021/03/15 06:50:59;;;;;;;81.50;44.48;;;;;;;5.62;92.47;99013.13;1758474;81;21354;-64
2021/03/15 06:53:42;;;;;;;92.12;46.10;;;;;;;5.68;92.42;99012.71;1762606;81;20944;-62
2021/03/15 06:56:17;;;;;;;96.75;47.48;;;;;;;5.70;92.19;99005.30;1763459;81;21160;-62
2021/03/15 06:58:51;;;;;;;96.20;48.48;;;;;;;5.71;92.20;99006.90;1762112;81;21117;-62
2021/03/15 07:01:23;;;;;;;87.27;49.50;;;;;;;5.74;91.93;99016.30;1758300;81;21167;-64
2021/03/15 07:04:06;;;;;;;85.87;46.13;;;;;;;5.75;92.04;99016.08;1758631;81;21369;-65
2021/03/15 07:06:42;;;;;;;98.58;48.10;;;;;;;5.79;91.86;99014.56;1758889;81;21014;-62
2021/03/15 07:09:12;;;;;;;90.53;47.62;;;;;;;5.83;91.86;99017.03;1760889;81;21042;-62
2021/03/15 07:11:40;;;;;;;76.30;40.10;;;;;;;5.91;92.02;99015.88;1763071;80;21161;-61
2021/03/15 07:14:09;;;;;;;78.22;43.02;;;;;;;5.97;91.48;99014.42;1758628;81;21642;-62
2021/03/15 07:16:37;;;;;;;92.75;48.02;;;;;;;5.95;90.82;99016.50;1730521;81;21383;-63
2021/03/15 07:19:11;;;;;;;88.00;47.98;;;;;;;5.98;91.06;99021.91;1760409;81;21137;-64
2021/03/15 07:21:41;;;;;;;71.02;41.95;;;;;;;6.01;90.68;99019.56;1759837;80;24790;-65
2021/03/15 07:24:12;;;;;;;73.30;40.40;;;;;;;6.04;90.42;99018.30;1758559;81;21768;-63
2021/03/15 07:26:45;;;;;;;82.15;47.08;;;;;;;6.05;90.13;99022.05;1758838;81;21145;-63
2021/03/15 07:29:17;;;;;;;78.55;40.43;;;;;;;6.02;89.83;99016.38;1761032;80;21374;-61
2021/03/15 07:31:46;;;;;;;76.90;42.03;;;;;;;5.98;89.73;99007.23;1763776;81;21184;-63
2021/03/15 07:34:19;;;;;;;83.50;46.98;;;;;;;5.95;89.89;99013.02;1762230;80;21041;-61
2021/03/15 07:36:57;;;;;;;76.75;43.33;;;;;;;5.95;89.88;99011.69;1759163;81;21208;-62
2021/03/15 07:39:31;;;;;;;76.82;42.35;;;;;;;5.94;89.93;99010.91;1762131;80;21161;-63
2021/03/15 07:42:01;;;;;;;77.80;41.37;;;;;;;5.94;89.91;99008.23;1763876;81;22137;-62
2021/03/15 07:44:33;;;;;;;74.58;42.08;;;;;;;5.94;89.85;98992.74;1763784;81;21217;-62
2021/03/15 07:47:05;;;;;;;76.53;42.17;;;;;;;5.93;89.92;98991.93;1763422;81;21161;-62
2021/03/15 07:49:39;;;;;;;90.05;50.67;;;;;;;5.96;89.92;98985.30;1761039;81;21132;-63
2021/03/15 07:52:12;;;;;;;80.38;44.20;;;;;;;6.02;90.06;98988.36;1758743;81;21085;-63
2021/03/15 07:54:43;;;;;;;77.42;44.75;;;;;;;6.07;89.86;99000.47;1758504;81;21194;-67
2021/03/15 07:57:23;;;;;;;95.65;50.33;;;;;;;6.05;89.68;98998.02;1758676;81;21161;-64
2021/03/15 07:59:54;;;;;;;84.17;46.15;;;;;;;6.04;89.66;99002.28;1760916;81;21083;-62
2021/03/15 08:02:29;;;;;;;84.97;43.85;;;;;;;6.01;89.77;98999.55;1759697;80;21570;-61
2021/03/15 08:04:59;;;;;;;81.00;41.70;;;;;;;6.03;89.83;99012.67;1758681;81;21121;-62
2021/03/15 08:07:28;;;;;;;86.10;45.73;;;;;;;6.03;89.84;99008.15;1758570;81;21200;-60
2021/03/15 08:09:59;;;;;;;89.58;44.35;;;;;;;6.06;89.77;99004.17;1759914;81;21185;-62
2021/03/15 08:12:30;;;;;;;89.72;51.95;;;;;;;6.08;89.78;99002.09;1759130;81;21192;-62
2021/03/15 08:15:10;;;;;;;100.42;54.83;;;;;;;6.04;89.45;99004.41;1758575;81;21196;-63
2021/03/15 08:17:46;;;;;;;96.85;55.35;;;;;;;6.04;89.50;98996.39;1758713;81;21535;-65
2021/03/15 08:20:18;;;;;;;82.42;46.88;;;;;;;6.07;89.51;98999.95;1754286;81;21496;-62
2021/03/15 08:22:52;;;;;;;77.60;42.78;;;;;;;6.08;89.36;99004.24;1763622;81;21176;-62
2021/03/15 08:25:19;;;;;;;77.50;41.83;;;;;;;6.08;89.28;99006.91;1763778;81;21193;-62
2021/03/15 08:27:47;;;;;;;82.25;44.35;;;;;;;6.03;89.20;99007.33;1760337;81;21142;-64
2021/03/15 08:30:24;;;;;;;76.22;42.33;;;;;;;6.00;89.29;99001.92;1760275;81;21149;-62
2021/03/15 08:32:52;;;;;;;76.77;43.23;;;;;;;6.02;89.44;99001.18;1761300;81;21290;-63
2021/03/15 08:35:20;;;;;;;77.32;47.00;;;;;;;6.06;89.43;99001.51;1763657;81;21137;-64
2021/03/15 08:37:59;;;;;;;81.75;48.55;;;;;;;6.09;89.40;99006.39;1763017;81;21113;-63
2021/03/15 08:40:48;;;;;;;70.67;39.80;;;;;;;6.16;89.37;99000.89;1758785;81;21157;-63
2021/03/15 08:43:25;;;;;;;62.45;37.93;;;;;;;6.16;88.93;99015.05;1763300;81;21131;-63
2021/03/15 08:46:06;;;;;;;85.30;51.37;;;;;;;6.10;88.89;99014.14;1764326;81;21350;-62
2021/03/15 08:48:43;;;;;;;81.25;46.90;;;;;;;6.11;89.05;99019.77;1763342;81;20990;-62
2021/03/15 08:51:12;;;;;;;80.03;43.08;;;;;;;6.17;89.21;99008.67;1713689;83;21173;-62
2021/03/15 08:53:48;;;;;;;73.17;40.45;;;;;;;6.23;89.01;99009.06;1739761;81;21034;-62
2021/03/15 08:56:20;;;;;;;80.38;47.17;;;;;;;6.14;88.82;99008.61;1759096;81;21204;-62
2021/03/15 08:58:53;;;;;;;70.83;40.80;;;;;;;6.05;89.05;99012.70;1760151;81;21364;-63
2021/03/15 09:01:28;;;;;;;76.50;43.63;;;;;;;6.02;89.41;99009.70;1764181;81;21116;-61
2021/03/15 09:04:02;;;;;;;78.22;41.98;;;;;;;5.96;89.66;99006.64;1752424;81;21147;-61
2021/03/15 09:06:44;;;;;;;74.45;46.20;;;;;;;5.93;90.02;99008.46;1771031;81;21228;-62
2021/03/15 09:09:24;;;;;;;60.25;36.68;;;;;;;5.91;90.31;99008.69;1771939;81;21106;-61
2021/03/15 09:11:54;;;;;;;65.80;39.00;;;;;;;5.91;90.49;99010.02;1772219;81;22290;-62
2021/03/15 09:14:29;;;;;;;64.53;36.55;;;;;;;5.92;90.58;99011.65;1771843;81;21431;-62
2021/03/15 09:17:16;;;;;;;69.77;41.02;;;;;;;5.89;90.70;99009.47;1758899;81;21149;-61
2021/03/15 09:19:47;;;;;;;68.52;39.65;;;;;;;5.90;90.94;99011.06;1762489;81;21545;-62
2021/03/15 09:22:26;;;;;;;74.22;37.42;;;;;;;5.92;91.09;99009.50;1764119;81;21108;-63
2021/03/15 09:24:56;;;;;;;83.35;44.53;;;;;;;5.94;91.16;99005.56;1760895;81;21359;-65
2021/03/15 09:27:35;;;;;;;70.03;38.73;;;;;;;5.98;91.11;99007.23;1752773;81;21033;-62
2021/03/15 09:30:14;;;;;;;66.15;37.58;;;;;;;6.00;91.11;99001.92;1758901;81;21116;-63
2021/03/15 09:32:49;;;;;;;72.60;43.35;;;;;;;6.00;90.99;99002.45;1761903;81;21149;-62
2021/03/15 09:35:28;;;;;;;88.67;45.45;;;;;;;5.97;91.14;99002.41;1761608;81;21150;-63
2021/03/15 09:38:04;;;;;;;81.20;44.70;;;;;;;5.97;91.14;99005.08;1763272;81;21375;-65
2021/03/15 09:40:49;;;;;;;84.17;48.30;;;;;;;5.93;91.21;99003.94;1764017;81;21260;-63
2021/03/15 09:43:24;;;;;;;67.53;38.40;;;;;;;6.01;91.64;98998.73;1764161;80;21166;-63
2021/03/15 09:46:00;;;;;;;71.60;39.65;;;;;;;6.13;91.69;98997.67;1763246;81;21027;-64
2021/03/15 09:48:30;;;;;;;71.55;42.15;;;;;;;6.16;91.20;99001.70;1763266;81;21647;-61
2021/03/15 09:51:03;;;;;;;78.22;41.30;;;;;;;6.10;91.04;99000.80;1763522;81;21355;-62
2021/03/15 09:53:49;;;;;;;66.07;38.17;;;;;;;6.07;91.14;98997.80;1763202;80;21200;-63
2021/03/15 09:56:18;;;;;;;65.17;37.95;;;;;;;6.03;91.34;99001.47;1762269;80;21586;-64
2021/03/15 09:58:48;;;;;;;79.85;44.45;;;;;;;6.02;91.50;99002.52;1758263;81;21591;-63
2021/03/15 10:01:21;;;;;;;77.45;43.85;;;;;;;6.01;91.78;98998.22;1723790;82;21189;-64
2021/03/15 10:04:00;;;;;;;93.37;48.78;;;;;;;6.02;92.00;99001.18;1727891;83;21262;-64
2021/03/15 10:06:45;;;;;;;68.67;39.67;;;;;;;6.04;92.09;98991.61;1735984;81;21165;-63
2021/03/15 10:09:30;;;;;;;71.10;41.88;;;;;;;6.15;92.12;99000.08;1844685;76;27648;-64
2021/03/15 10:12:21;;;;;;;81.17;45.98;;;;;;;6.10;92.07;98998.64;1817063;79;21591;-62
2021/03/15 10:15:10;;;;;;;69.60;36.63;;;;;;;6.09;92.19;99012.52;1817154;79;22054;-62
2021/03/15 10:17:40;;;;;;;53.13;32.45;;;;;;;6.13;92.28;99004.34;1805055;79;21657;-61
2021/03/15 10:20:26;;;;;;;71.05;40.50;;;;;;;6.23;92.30;99007.73;1878873;76;27762;-63
2021/03/15 10:22:54;;;;;;;63.52;37.65;;;;;;;6.24;92.22;99010.66;1817927;77;21004;-63
2021/03/15 10:25:22;;;;;;;61.85;35.65;;;;;;;6.29;92.09;99012.09;1802698;77;22326;-63
2021/03/15 10:27:57;;;;;;;66.62;35.20;;;;;;;6.32;91.75;99009.48;1821362;77;21019;-63
2021/03/15 10:30:33;;;;;;;68.42;38.05;;;;;;;6.25;91.54;99005.61;1852682;77;20995;-64
2021/03/15 10:33:02;;;;;;;61.13;40.58;;;;;;;6.24;91.70;99011.19;1831084;77;21171;-63
2021/03/15 10:35:32;;;;;;;58.45;34.43;;;;;;;6.32;92.00;99011.64;1830150;77;21035;-65
2021/03/15 10:38:13;;;;;;;63.35;35.98;;;;;;;6.45;91.81;99003.33;1858613;76;27612;-62
2021/03/15 10:40:53;;;;;;;65.92;35.98;;;;;;;6.41;91.47;99006.72;1788623;77;21659;-61
2021/03/15 10:43:25;;;;;;;58.73;34.48;;;;;;;6.39;91.60;99010.95;1820786;78;21353;-63
2021/03/15 10:46:18;;;;;;;68.80;40.88;;;;;;;6.40;91.56;99009.91;1823602;77;21003;-63
2021/03/15 10:48:46;;;;;;;58.70;35.10;;;;;;;6.42;91.55;99005.16;1826970;77;21212;-62
2021/03/15 10:51:15;;;;;;;57.65;35.92;;;;;;;6.53;91.43;99002.92;1854142;77;20979;-63
2021/03/15 10:53:50;;;;;;;71.22;40.38;;;;;;;6.49;90.81;99004.98;1831447;77;21030;-62
2021/03/15 10:56:21;;;;;;;58.40;36.30;;;;;;;6.44;90.85;99006.23;1820209;78;21289;-63
2021/03/15 10:58:50;;;;;;;52.58;32.30;;;;;;;6.43;90.90;99001.92;1819916;78;21090;-67
2021/03/15 11:01:25;;;;;;;40.70;28.05;;;;;;;6.33;90.63;98995.87;1819273;78;20999;-62
2021/03/15 11:04:12;;;;;;;39.45;26.07;;;;;;;6.23;90.67;98997.05;1817951;78;21007;-64
2021/03/15 11:06:45;;;;;;;39.27;27.22;;;;;;;6.16;91.00;98990.22;1817615;78;21137;-62
2021/03/15 11:09:16;;;;;;;37.90;26.17;;;;;;;6.08;91.32;98987.41;1821189;78;21371;-63
2021/03/15 11:11:50;;;;;;;42.38;27.98;;;;;;;6.04;91.63;98988.39;1820818;78;20990;-65
2021/03/15 11:14:20;;;;;;;30.55;21.77;;;;;;;6.07;91.93;98981.78;1827254;77;21153;-64
2021/03/15 11:17:08;;;;;;;33.53;22.60;;;;;;;6.11;92.19;98981.59;1826465;77;21621;-68
2021/03/15 11:19:52;;;;;;;40.92;26.62;;;;;;;6.13;92.37;98978.98;1853265;77;21141;-66
2021/03/15 11:22:28;;;;;;;36.80;24.90;;;;;;;6.15;92.55;98974.72;1835983;77;21379;-70
2021/03/15 11:25:09;;;;;;;28.27;20.62;;;;;;;6.14;92.77;98971.23;1820752;78;21148;-67
2021/03/15 11:27:46;;;;;;;35.55;22.75;;;;;;;6.23;93.14;98972.20;1825789;77;22036;-64
2021/03/15 11:30:26;;;;;;;29.12;20.48;;;;;;;6.32;93.12;98965.43;1815339;77;21134;-63
2021/03/15 11:33:11;;;;;;;32.48;22.60;;;;;;;6.34;92.83;98965.98;1819510;78;21144;-61
2021/03/15 11:35:49;;;;;;;32.53;24.32;;;;;;;6.41;92.75;98967.98;1819723;77;21239;-61
2021/03/15 11:38:23;;;;;;;31.62;21.68;;;;;;;6.43;92.29;98972.55;1821364;77;21153;-63
2021/03/15 11:40:52;;;;;;;30.80;21.42;;;;;;;6.47;92.20;98974.53;1821159;78;22245;-63
2021/03/15 11:43:20;;;;;;;36.42;25.08;;;;;;;6.41;91.65;98972.81;1821437;77;21638;-66
2021/03/15 11:45:50;;;;;;;33.85;23.73;;;;;;;6.33;91.70;98970.51;1850807;77;21589;-63
2021/03/15 11:48:18;;;;;;;31.25;20.65;;;;;;;6.32;91.99;98976.92;1797919;77;21364;-64
2021/03/15 11:51:05;;;;;;;39.60;23.98;;;;;;;6.31;92.01;98976.63;1820224;78;21188;-66
2021/03/15 11:53:35;;;;;;;30.02;19.30;;;;;;;6.23;91.87;98969.53;1819050;78;21211;-65